Cornelia, Iowa
Current Conditions -  °F | °C
As of 6:55 AM on Saturday 20 Dec 2014 (Local Time) from KCAV Reporting Station
Overcast Overcast  
Wind Chill: 23°   Ceiling: 500
Heat Index: 30°   Visibility: NA
Dew Point: 30°   Wind: 7mph
Humidity: 100%   Direction: 170°S
Pressure: 30.15"   Gusts: NA
Location:  42.7038°N, 93.7195°W
Report Text: KCAV 201255Z AUTO 17006KT BKN005 OVC009 M01/M01 A3015 RMK AO2
Loading
Personal Weather Stations






























Interactive Weather Map New forecast layout! Learn more

10-Day Weather Forecast

Advertisements
Track Severe Weather on mobile